Madawaska, ME

7:48 AM EST on January 28, 2015 (GMT -0500)
K1FTK | Change Station
CLOSE
Current Station
Personal Weather Station
Location: Saint Agatha, ME
Elevation: 825 ft
Nearby Weather Stations

Elev 825 ft 47.25 °N, 68.35 °W | Updated 8 minutes ago

Light Snow
Light Snow
8.8 °F
Feels Like -5 °F
N
10.0
Wind Variable Wind from NNW
Gusts 11.0 mph

Today
High -- | Low -- °F
--% Chance of Precip.
Yesterday
High -- | Low -- °F
Precip. -- in
7:04 AM 4:28 PM
Waxing Gibbous, 64% visible
Pressure 29.82 in
Visibility 0.8 miles
Clouds
Windchill -5 °F
Dew Point 6 °F
Humidity 87%
Rainfall 0.00 in
Snow Depth Not available.
UV Not available.
Pollen .10 out of 12
Air Quality Not available.
Flu Activity Not available.
SPECI KFVE 281241Z AUTO 34014KT 3/4SM -SN VV011 M13/M16 A2982 RMK AO2 P0000 T11331161

More Conditions Fewer Conditions

Pressure 29.82 in
Visibility 0.8 miles
Clouds
Windchill -5 °F
Dew Point 6 °F
Humidity 87%
Rainfall 0.00 in
Snow Depth Not available.
UV Not available.
Pollen .10 out of 12
Air Quality Not available.
Flu Activity Not available.
SPECI KFVE 281241Z AUTO 34014KT 3/4SM -SN VV011 M13/M16 A2982 RMK AO2 P0000 T11331161

More Conditions Fewer Conditions

10-Day Weather Forecast

Almanac

Astronomy

Jan. 28, 2015 Rise Set
Actual Time
Civil Twilight
Nautical Twilight
Astronomical Twilight
Moon
Length of Visible Light
Length of Day
Tomorrow will be .
, % of the Moon is Illuminated

Today's Extremes

State Highs State Lows

Community

WunderPhotos

Upload Photos

1,791,133 photos uploaded!

WunderBlogs® & News

Nearby

Air Quality

  Air Quality AQ Index Pollutant
Not available.

Snow Depth

Station Depth Elevation

Earthquake Activity

City Distance Mag. Time & Date
Minimum magnitude displayed is 2.5.

Coastal Water Temperatures

Place Temperature

Nearby Weather Stations